createdAt,value
2018-12-18T00:01:55.350Z,1.90
2018-12-18T00:04:23.697Z,1.90
2018-12-18T00:06:52.049Z,1.90
2018-12-18T00:09:20.490Z,1.80
2018-12-18T00:11:48.903Z,1.90
2018-12-18T00:14:17.242Z,1.80
2018-12-18T00:16:45.546Z,1.80
2018-12-18T00:19:13.879Z,1.80
2018-12-18T00:21:42.190Z,1.80
2018-12-18T00:24:10.534Z,1.80
2018-12-18T00:26:39.038Z,1.80
2018-12-18T00:29:07.395Z,1.80
2018-12-18T00:31:36.007Z,1.80
2018-12-18T00:34:04.337Z,1.90
2018-12-18T00:36:32.656Z,1.80
2018-12-18T00:39:01.081Z,1.80
2018-12-18T00:41:29.426Z,1.80
2018-12-18T00:43:57.778Z,1.80
2018-12-18T00:46:26.086Z,1.70
2018-12-18T00:48:54.442Z,1.70
2018-12-18T00:51:22.755Z,1.70
2018-12-18T00:53:51.102Z,1.70
2018-12-18T00:56:19.436Z,1.70
2018-12-18T00:58:47.849Z,1.60
2018-12-18T01:01:16.182Z,1.60
2018-12-18T01:03:44.521Z,1.60
2018-12-18T01:06:12.871Z,1.60
2018-12-18T01:08:41.165Z,1.50
2018-12-18T01:11:09.525Z,1.50
2018-12-18T01:13:37.854Z,1.50
2018-12-18T01:16:06.166Z,1.50
2018-12-18T01:18:34.513Z,1.50
2018-12-18T01:21:02.831Z,1.40
2018-12-18T01:23:31.273Z,1.40
2018-12-18T01:25:59.705Z,1.30
2018-12-18T01:28:28.047Z,1.30
2018-12-18T01:30:56.458Z,1.20
2018-12-18T01:33:24.763Z,1.20
2018-12-18T01:35:53.097Z,1.20
2018-12-18T01:38:21.393Z,1.20
2018-12-18T01:40:49.729Z,1.20
2018-12-18T01:43:18.041Z,1.10
2018-12-18T01:45:46.390Z,1.10
2018-12-18T01:48:14.697Z,1.00
2018-12-18T01:50:43.142Z,1.00
2018-12-18T01:53:11.453Z,1.00
2018-12-18T01:55:39.794Z,0.90
2018-12-18T01:58:08.114Z,0.90
2018-12-18T02:00:36.466Z,0.80
2018-12-18T02:03:04.773Z,0.80
2018-12-18T02:05:33.087Z,0.80
2018-12-18T02:08:01.498Z,0.80
2018-12-18T02:10:29.815Z,0.70
2018-12-18T02:12:58.149Z,0.70
2018-12-18T02:15:26.454Z,0.70
2018-12-18T02:17:54.791Z,0.60
2018-12-18T02:20:23.119Z,0.60
2018-12-18T02:22:51.474Z,0.60
2018-12-18T02:25:19.794Z,0.50
2018-12-18T02:27:48.140Z,0.50
2018-12-18T02:30:16.482Z,0.50
2018-12-18T02:32:44.782Z,0.50
2018-12-18T02:35:13.108Z,0.50
2018-12-18T02:37:41.415Z,0.50
2018-12-18T02:40:09.794Z,0.40
2018-12-18T02:42:38.102Z,0.40
2018-12-18T02:45:06.910Z,0.40
2018-12-18T02:47:35.250Z,0.40
2018-12-18T02:50:03.878Z,0.40
2018-12-18T02:52:32.222Z,0.40
2018-12-18T02:55:00.545Z,0.40
2018-12-18T02:57:28.896Z,0.40
2018-12-18T02:59:57.203Z,0.40
2018-12-18T03:02:25.563Z,0.40
2018-12-18T03:04:53.870Z,0.40
2018-12-18T03:07:22.232Z,0.40
2018-12-18T03:09:50.576Z,0.40
2018-12-18T03:12:19.026Z,0.40
2018-12-18T03:14:47.343Z,0.40
2018-12-18T03:17:15.883Z,0.40
2018-12-18T03:19:44.218Z,0.30
2018-12-18T03:22:12.598Z,0.30
2018-12-18T03:24:41.013Z,0.30
2018-12-18T03:27:09.449Z,0.30
2018-12-18T03:29:37.797Z,0.30
2018-12-18T03:32:11.320Z,0.30
2018-12-18T03:34:39.687Z,0.30
2018-12-18T03:37:08.122Z,0.40
2018-12-18T03:39:36.447Z,0.40
2018-12-18T03:42:04.834Z,0.40
2018-12-18T03:44:33.149Z,0.40
2018-12-18T03:47:01.507Z,0.40
2018-12-18T03:49:29.826Z,0.40
2018-12-18T03:51:58.183Z,0.40
2018-12-18T03:54:26.530Z,0.40
2018-12-18T03:56:54.879Z,0.40
2018-12-18T03:59:23.190Z,0.30
2018-12-18T04:01:51.506Z,0.30
2018-12-18T04:04:19.839Z,0.30
2018-12-18T04:06:48.148Z,0.30
2018-12-18T04:09:16.599Z,0.20
2018-12-18T04:12:50.546Z,0.20
2018-12-18T04:15:19.031Z,0.20
2018-12-18T04:17:47.375Z,0.10
2018-12-18T04:20:15.710Z,0.10
2018-12-18T04:22:44.034Z,0.10
2018-12-18T04:25:12.383Z,0.00
2018-12-18T04:27:40.719Z,0.00
2018-12-18T04:30:09.239Z,0.00
2018-12-18T04:32:37.591Z,0.00
2018-12-18T04:35:06.039Z,-0.10
2018-12-18T04:37:34.354Z,-0.10
2018-12-18T04:40:02.827Z,-0.10
2018-12-18T04:42:31.203Z,-0.10
2018-12-18T04:44:59.514Z,-0.10
2018-12-18T04:47:27.864Z,-0.10
2018-12-18T04:49:56.334Z,-0.20
2018-12-18T04:52:24.654Z,-0.20
2018-12-18T04:54:53.003Z,-0.20
2018-12-18T04:57:21.355Z,-0.20
2018-12-18T04:59:49.666Z,-0.20
2018-12-18T05:02:17.981Z,-0.20
2018-12-18T05:04:50.241Z,-0.30
2018-12-18T05:07:16.922Z,-0.30
2018-12-18T05:09:45.293Z,-0.30
2018-12-18T05:12:13.626Z,-0.30
2018-12-18T05:14:41.990Z,-0.30
2018-12-18T05:17:10.372Z,-0.30
2018-12-18T05:19:38.715Z,-0.40
2018-12-18T05:22:07.224Z,-0.40
2018-12-18T05:24:35.569Z,-0.40
2018-12-18T05:27:03.939Z,-0.40
2018-12-18T05:29:32.257Z,-0.40
2018-12-18T05:32:00.619Z,-0.40
2018-12-18T05:34:28.979Z,-0.40
2018-12-18T05:36:57.341Z,-0.40
2018-12-18T05:39:32.150Z,-0.40
2018-12-18T05:42:00.601Z,-0.40
2018-12-18T05:44:28.968Z,-0.50
2018-12-18T05:46:57.277Z,-0.50
2018-12-18T05:49:25.626Z,-0.60
2018-12-18T05:51:54.063Z,-0.70
2018-12-18T05:54:22.829Z,-0.70
2018-12-18T05:56:51.138Z,-0.70
2018-12-18T05:59:19.442Z,-0.80
2018-12-18T06:01:47.804Z,-0.80
2018-12-18T06:04:16.146Z,-0.80
2018-12-18T06:06:44.503Z,-0.80
2018-12-18T06:09:12.851Z,-0.90
2018-12-18T06:11:41.207Z,-0.90
2018-12-18T06:14:09.596Z,-0.90
2018-12-18T06:16:37.971Z,-0.90
2018-12-18T06:19:06.319Z,-0.80
2018-12-18T06:21:34.690Z,-0.90
2018-12-18T06:24:03.031Z,-0.90
2018-12-18T06:26:31.362Z,-0.90
2018-12-18T06:28:59.713Z,-0.90
2018-12-18T06:31:28.034Z,-0.90
2018-12-18T06:33:56.390Z,-0.80
2018-12-18T06:36:24.707Z,-0.70
2018-12-18T06:38:53.051Z,-0.80
2018-12-18T06:41:21.390Z,-0.80
2018-12-18T06:43:49.742Z,-0.90
2018-12-18T06:46:18.137Z,-1.00
2018-12-18T06:48:46.571Z,-1.00
2018-12-18T06:51:14.930Z,-1.00
2018-12-18T06:53:43.242Z,-1.00
2018-12-18T06:56:11.588Z,-1.00
2018-12-18T06:58:39.894Z,-1.00
2018-12-18T07:01:08.262Z,-1.00
2018-12-18T07:03:36.566Z,-1.00
2018-12-18T07:06:04.903Z,-1.00
2018-12-18T07:08:33.254Z,-1.10
2018-12-18T07:11:01.583Z,-1.10
2018-12-18T07:13:29.912Z,-1.10
2018-12-18T07:15:58.258Z,-1.10
2018-12-18T07:18:26.660Z,-1.10
2018-12-18T07:20:55.019Z,-1.20
2018-12-18T07:23:23.338Z,-1.20
2018-12-18T07:25:51.713Z,-1.20
2018-12-18T07:28:20.059Z,-0.90
2018-12-18T07:30:48.526Z,-0.90
2018-12-18T07:33:16.848Z,-0.90
2018-12-18T07:35:45.176Z,-1.00
2018-12-18T07:38:13.522Z,-1.00
2018-12-18T07:40:41.835Z,-1.10
2018-12-18T07:43:10.219Z,-1.10
2018-12-18T07:45:38.530Z,-1.10
2018-12-18T07:48:06.876Z,-1.10
2018-12-18T07:50:35.270Z,-1.10
2018-12-18T07:53:03.762Z,-1.10
2018-12-18T07:55:32.244Z,-1.20
2018-12-18T07:58:00.609Z,-1.20
2018-12-18T08:00:28.979Z,-1.20
2018-12-18T08:02:57.304Z,-1.20
2018-12-18T08:05:29.848Z,-1.20
2018-12-18T08:07:56.031Z,-1.20
2018-12-18T08:10:24.346Z,-1.10
2018-12-18T08:12:52.723Z,-1.10
2018-12-18T08:15:21.031Z,-1.10
2018-12-18T08:17:49.383Z,-1.10
2018-12-18T08:20:17.707Z,-1.10
2018-12-18T08:22:46.054Z,-1.10
2018-12-18T08:25:14.486Z,-1.10
2018-12-18T08:27:42.830Z,-1.10
2018-12-18T08:30:11.290Z,-1.00
2018-12-18T08:32:39.643Z,-1.00
2018-12-18T08:35:07.985Z,-1.00
2018-12-18T08:37:36.308Z,-0.90
2018-12-18T08:40:11.672Z,-0.90
2018-12-18T08:42:41.368Z,-0.80
2018-12-18T08:45:09.995Z,-0.80
2018-12-18T08:47:38.315Z,-0.70
2018-12-18T08:50:08.073Z,-0.70
2018-12-18T08:52:36.454Z,-0.60
2018-12-18T08:55:05.330Z,-0.60
2018-12-18T08:57:34.375Z,-0.60
2018-12-18T09:00:03.022Z,-0.50
2018-12-18T09:02:31.350Z,-0.50
2018-12-18T09:04:59.665Z,-0.40
2018-12-18T09:07:28.071Z,-0.30
2018-12-18T09:09:56.463Z,-0.30
2018-12-18T09:12:24.811Z,-0.20
2018-12-18T09:14:57.379Z,-0.20
2018-12-18T09:17:31.288Z,-0.20
2018-12-18T09:19:59.719Z,-0.10
2018-12-18T09:22:28.061Z,-0.10
2018-12-18T09:24:56.381Z,0.00
2018-12-18T09:27:24.727Z,0.00
2018-12-18T09:29:53.047Z,0.10
2018-12-18T09:32:21.413Z,0.20
2018-12-18T09:34:49.740Z,0.20
2018-12-18T09:37:18.050Z,0.30
2018-12-18T09:39:48.403Z,0.30
2018-12-18T09:42:22.119Z,0.40
2018-12-18T09:44:50.483Z,0.50
2018-12-18T09:47:18.835Z,0.50
2018-12-18T09:49:47.235Z,0.60
2018-12-18T09:52:15.590Z,0.60
2018-12-18T09:54:43.910Z,0.70
2018-12-18T09:57:17.726Z,0.70
2018-12-18T09:59:46.070Z,0.80
2018-12-18T10:02:14.387Z,0.90
2018-12-18T10:04:42.734Z,1.00
2018-12-18T10:07:11.082Z,1.20
2018-12-18T10:09:39.395Z,1.30
2018-12-18T10:12:07.854Z,1.50
2018-12-18T10:14:36.176Z,1.60
2018-12-18T10:17:04.522Z,1.70
2018-12-18T10:19:32.933Z,1.70
2018-12-18T10:22:01.295Z,1.80
2018-12-18T10:24:29.663Z,1.80
2018-12-18T10:26:58.010Z,1.90
2018-12-18T10:29:26.355Z,1.90
2018-12-18T10:31:54.663Z,2.00
2018-12-18T10:34:23.062Z,2.00
2018-12-18T10:36:51.535Z,2.00
2018-12-18T10:39:19.868Z,2.00
2018-12-18T10:41:48.182Z,2.00
2018-12-18T10:44:16.560Z,2.10
2018-12-18T10:46:44.907Z,2.10
2018-12-18T10:49:13.249Z,2.20
2018-12-18T10:51:41.558Z,2.10
2018-12-18T10:54:09.912Z,2.20
2018-12-18T10:56:38.220Z,2.20
2018-12-18T10:59:06.646Z,2.20
2018-12-18T11:01:40.350Z,2.30
2018-12-18T11:04:08.664Z,2.30
2018-12-18T11:06:37.107Z,2.30
2018-12-18T11:09:08.427Z,2.40
2018-12-18T11:11:37.190Z,2.40
2018-12-18T11:14:05.727Z,2.40
2018-12-18T11:16:37.365Z,2.50
2018-12-18T11:19:04.503Z,2.50
2018-12-18T11:21:32.859Z,2.50
2018-12-18T11:24:01.206Z,2.50
2018-12-18T11:26:29.518Z,2.50
2018-12-18T11:28:57.975Z,2.60
2018-12-18T11:31:26.316Z,2.60
2018-12-18T11:33:54.686Z,2.70
2018-12-18T11:36:22.998Z,2.70
2018-12-18T11:38:51.363Z,2.80
2018-12-18T11:41:19.704Z,2.80
2018-12-18T11:43:48.035Z,2.80
2018-12-18T11:46:16.403Z,2.80
2018-12-18T11:48:45.122Z,2.90
2018-12-18T11:51:13.469Z,2.90
2018-12-18T11:53:41.783Z,3.00
2018-12-18T11:56:10.338Z,3.00
2018-12-18T11:58:38.642Z,3.10
2018-12-18T12:01:06.990Z,3.20
2018-12-18T12:03:35.336Z,3.30
2018-12-18T12:06:03.786Z,3.40
2018-12-18T12:08:32.190Z,3.40
2018-12-18T12:11:00.510Z,3.40
2018-12-18T12:13:28.846Z,3.40
2018-12-18T12:15:57.151Z,3.50
2018-12-18T12:18:25.507Z,3.50
2018-12-18T12:20:53.817Z,3.50
2018-12-18T12:23:22.174Z,3.50
2018-12-18T12:25:50.490Z,3.50
2018-12-18T12:28:18.811Z,3.50
2018-12-18T12:30:47.153Z,3.60
2018-12-18T12:33:15.458Z,3.60
2018-12-18T12:35:43.820Z,3.70
2018-12-18T12:38:12.155Z,3.70
2018-12-18T12:40:40.538Z,3.70
2018-12-18T12:43:08.870Z,3.70
2018-12-18T12:45:37.230Z,3.70
2018-12-18T12:48:12.508Z,3.70
2018-12-18T12:50:40.838Z,3.80
2018-12-18T12:53:09.350Z,3.80
2018-12-18T12:55:37.703Z,3.80
2018-12-18T12:58:06.011Z,3.80
2018-12-18T13:00:34.351Z,3.80
2018-12-18T13:03:02.658Z,3.80
2018-12-18T13:05:31.018Z,3.80
2018-12-18T13:07:59.326Z,3.80
2018-12-18T13:10:27.634Z,3.80
2018-12-18T13:12:56.054Z,3.80
2018-12-18T13:15:24.371Z,3.80
2018-12-18T13:17:52.710Z,3.80
2018-12-18T13:20:21.145Z,3.90
2018-12-18T13:22:49.526Z,3.90
2018-12-18T13:25:17.851Z,3.90
2018-12-18T13:27:46.236Z,3.90
2018-12-18T13:30:14.629Z,3.90
2018-12-18T13:32:42.950Z,4.00
2018-12-18T13:35:11.298Z,4.00
2018-12-18T13:37:39.611Z,4.00
2018-12-18T13:40:08.090Z,4.10
2018-12-18T13:42:36.403Z,4.10
2018-12-18T13:45:05.142Z,4.20
2018-12-18T13:47:33.503Z,4.20
2018-12-18T13:50:01.853Z,4.20
2018-12-18T13:52:30.227Z,4.30
2018-12-18T13:54:58.539Z,4.30
2018-12-18T13:57:26.858Z,4.30
2018-12-18T13:59:55.202Z,4.30
2018-12-18T14:02:23.543Z,4.30
2018-12-18T14:04:51.894Z,4.30
2018-12-18T14:07:20.210Z,4.30
2018-12-18T14:09:48.756Z,4.30
2018-12-18T14:12:17.073Z,4.40
2018-12-18T14:14:45.426Z,4.60
2018-12-18T14:17:13.783Z,4.80
2018-12-18T14:19:42.099Z,4.80
2018-12-18T14:22:10.451Z,4.70
2018-12-18T14:24:38.797Z,4.70
2018-12-18T14:27:07.114Z,4.70
2018-12-18T14:29:35.542Z,4.60
2018-12-18T14:32:03.857Z,4.60
2018-12-18T14:34:32.219Z,4.50
2018-12-18T14:37:00.530Z,4.50
2018-12-18T14:39:28.863Z,4.40
2018-12-18T14:41:57.249Z,4.40
2018-12-18T14:44:25.634Z,4.40
2018-12-18T14:46:53.978Z,4.40
2018-12-18T14:49:22.403Z,4.30
2018-12-18T14:51:50.746Z,4.30
2018-12-18T14:54:19.246Z,4.30
2018-12-18T14:56:47.593Z,4.20
2018-12-18T14:59:16.007Z,4.20
2018-12-18T15:01:44.417Z,4.10
2018-12-18T15:04:12.737Z,4.00
2018-12-18T15:06:41.051Z,4.00
2018-12-18T15:09:09.399Z,3.90
2018-12-18T15:11:37.717Z,3.90
2018-12-18T15:14:06.066Z,3.90
2018-12-18T15:16:34.423Z,3.90
2018-12-18T15:19:02.815Z,3.90
2018-12-18T15:21:31.210Z,3.90
2018-12-18T15:23:59.550Z,3.80
2018-12-18T15:26:27.866Z,3.70
2018-12-18T15:28:56.229Z,3.70
2018-12-18T15:31:24.551Z,3.60
2018-12-18T15:33:52.858Z,3.50
2018-12-18T15:36:21.195Z,3.40
2018-12-18T15:38:49.550Z,3.30
2018-12-18T15:41:17.866Z,3.20
2018-12-18T15:43:46.206Z,3.10
2018-12-18T15:46:14.514Z,3.10
2018-12-18T15:48:42.893Z,3.10
2018-12-18T15:51:11.270Z,3.10
2018-12-18T15:53:39.623Z,3.00
2018-12-18T15:56:07.974Z,2.90
2018-12-18T15:58:36.286Z,2.90
2018-12-18T16:01:04.694Z,2.80
2018-12-18T16:03:33.042Z,2.80
2018-12-18T16:06:01.362Z,2.70
2018-12-18T16:08:29.698Z,2.70
2018-12-18T16:10:58.087Z,2.60
2018-12-18T16:13:26.435Z,2.60
2018-12-18T16:15:54.746Z,2.60
2018-12-18T16:18:23.106Z,2.50
2018-12-18T16:20:51.526Z,2.40
2018-12-18T16:23:19.870Z,2.30
2018-12-18T16:25:48.191Z,2.20
2018-12-18T16:28:16.543Z,2.20
2018-12-18T16:30:44.860Z,2.10
2018-12-18T16:33:13.190Z,2.00
2018-12-18T16:35:46.086Z,2.00
2018-12-18T16:38:11.866Z,2.00
2018-12-18T16:40:40.219Z,1.90
2018-12-18T16:43:08.532Z,1.80
2018-12-18T16:45:36.873Z,1.80
2018-12-18T16:48:05.289Z,1.80
2018-12-18T16:50:34.837Z,1.80
2018-12-18T16:53:03.286Z,1.70
2018-12-18T16:55:31.619Z,1.70
2018-12-18T16:57:59.943Z,1.60
2018-12-18T17:00:28.254Z,1.60
2018-12-18T17:02:56.605Z,1.60
2018-12-18T17:05:24.918Z,1.50
2018-12-18T17:07:53.278Z,1.50
2018-12-18T17:10:21.595Z,1.50
2018-12-18T17:12:56.922Z,1.50
2018-12-18T17:15:25.462Z,1.40
2018-12-18T17:17:53.821Z,1.40
2018-12-18T17:20:22.143Z,1.30
2018-12-18T17:22:50.582Z,1.30
2018-12-18T17:25:18.902Z,1.20
2018-12-18T17:27:47.218Z,1.20
2018-12-18T17:30:15.545Z,1.20
2018-12-18T17:32:43.891Z,1.20
2018-12-18T17:35:12.212Z,1.20
2018-12-18T17:37:40.542Z,1.10
2018-12-18T17:40:09.178Z,1.10
2018-12-18T17:42:37.486Z,1.10
2018-12-18T17:45:06.930Z,1.00
2018-12-18T17:47:35.256Z,1.00
2018-12-18T17:50:04.077Z,0.90
2018-12-18T17:52:32.418Z,0.90
2018-12-18T17:55:00.734Z,0.80
2018-12-18T17:57:29.087Z,0.80
2018-12-18T17:59:57.520Z,0.80
2018-12-18T18:02:25.907Z,0.70
2018-12-18T18:04:54.254Z,0.70
2018-12-18T18:07:22.562Z,0.70
2018-12-18T18:09:50.912Z,0.70
2018-12-18T18:12:19.345Z,0.70
2018-12-18T18:14:47.694Z,0.60
2018-12-18T18:17:16.038Z,0.60
2018-12-18T18:19:44.349Z,0.50
2018-12-18T18:22:12.702Z,0.50
2018-12-18T18:24:41.015Z,0.40
2018-12-18T18:27:09.376Z,0.40
2018-12-18T18:29:37.699Z,0.30
2018-12-18T18:32:06.051Z,0.30
2018-12-18T18:34:34.363Z,0.30
2018-12-18T18:37:02.698Z,0.20
2018-12-18T18:39:31.010Z,0.20
2018-12-18T18:41:59.362Z,0.20
2018-12-18T18:44:27.670Z,0.10
2018-12-18T18:46:56.022Z,0.10
2018-12-18T18:49:24.366Z,0.10
2018-12-18T18:51:52.746Z,0.00
2018-12-18T18:54:21.232Z,0.00
2018-12-18T18:56:49.586Z,0.00
2018-12-18T18:59:17.903Z,-0.10
2018-12-18T19:01:46.210Z,-0.10
2018-12-18T19:04:14.543Z,-0.10
2018-12-18T19:06:43.597Z,-0.20
2018-12-18T19:09:11.943Z,-0.20
2018-12-18T19:11:40.275Z,-0.20
2018-12-18T19:14:08.643Z,-0.20
2018-12-18T19:16:36.959Z,-0.20
2018-12-18T19:19:05.334Z,-0.30
2018-12-18T19:21:33.696Z,-0.30
2018-12-18T19:24:02.021Z,-0.30
2018-12-18T19:26:30.350Z,-0.30
2018-12-18T19:28:58.691Z,-0.40
2018-12-18T19:31:27.975Z,-0.40
2018-12-18T19:33:56.337Z,-0.40
2018-12-18T19:36:24.719Z,-0.40
2018-12-18T19:38:53.080Z,-0.40
2018-12-18T19:41:21.401Z,-0.40
2018-12-18T19:43:49.736Z,-0.40
2018-12-18T19:46:18.115Z,-0.50
2018-12-18T19:48:46.474Z,-0.50
2018-12-18T19:51:14.819Z,-0.50
2018-12-18T19:53:43.238Z,-0.50
2018-12-18T19:56:11.594Z,-0.60
2018-12-18T19:58:39.911Z,-0.60
2018-12-18T20:01:08.296Z,-0.60
2018-12-18T20:03:36.627Z,-0.60
2018-12-18T20:06:04.975Z,-0.60
2018-12-18T20:08:33.308Z,-0.60
2018-12-18T20:11:01.721Z,-0.60
2018-12-18T20:13:30.043Z,-0.60
2018-12-18T20:15:58.419Z,-0.70
2018-12-18T20:18:26.754Z,-0.70
2018-12-18T20:20:55.078Z,-0.70
2018-12-18T20:23:23.438Z,-0.70
2018-12-18T20:25:51.984Z,-0.70
2018-12-18T20:28:20.428Z,-0.80
2018-12-18T20:30:48.754Z,-0.80
2018-12-18T20:33:17.218Z,-0.80
2018-12-18T20:35:45.718Z,-0.80
2018-12-18T20:38:16.996Z,-0.90
2018-12-18T20:40:44.461Z,-0.90
2018-12-18T20:43:12.817Z,-0.90
2018-12-18T20:45:41.278Z,-1.00
2018-12-18T20:48:09.678Z,-1.00
2018-12-18T20:50:38.026Z,-1.00
2018-12-18T20:53:06.355Z,-1.00
2018-12-18T20:55:34.714Z,-1.10
2018-12-18T20:58:03.083Z,-1.00
2018-12-18T21:00:31.438Z,-1.10
2018-12-18T21:02:59.790Z,-1.10
2018-12-18T21:05:28.291Z,-1.10
2018-12-18T21:07:56.887Z,-1.10
2018-12-18T21:10:25.366Z,-1.10
2018-12-18T21:12:58.095Z,-1.10
2018-12-18T21:15:26.559Z,-1.10
2018-12-18T21:17:54.987Z,-1.20
2018-12-18T21:20:23.479Z,-1.20
2018-12-18T21:22:51.905Z,-1.20
2018-12-18T21:25:20.367Z,-1.20
2018-12-18T21:27:48.789Z,-1.20
2018-12-18T21:30:17.241Z,-1.30
2018-12-18T21:32:45.662Z,-1.30
2018-12-18T21:35:14.147Z,-1.30
2018-12-18T21:37:42.598Z,-1.40
2018-12-18T21:40:11.062Z,-1.40
2018-12-18T21:42:39.484Z,-1.40
2018-12-18T21:45:08.072Z,-1.40
2018-12-18T21:47:36.492Z,-1.40
2018-12-18T21:50:05.700Z,-1.50
2018-12-18T21:52:34.129Z,-1.40
2018-12-18T21:55:02.597Z,-1.50
2018-12-18T21:57:31.050Z,-1.50
2018-12-18T21:59:59.531Z,-1.50
2018-12-18T22:02:27.983Z,-1.50
2018-12-18T22:04:56.410Z,-1.50
2018-12-18T22:07:24.870Z,-1.50
2018-12-18T22:09:53.335Z,-1.50
2018-12-18T22:12:21.789Z,-1.50
2018-12-18T22:14:50.207Z,-1.50
2018-12-18T22:17:18.658Z,-1.50
2018-12-18T22:19:47.079Z,-1.50
2018-12-18T22:22:15.538Z,-1.50
2018-12-18T22:24:44.064Z,-1.50
2018-12-18T22:27:12.514Z,-1.50
2018-12-18T22:29:40.849Z,-1.50
2018-12-18T22:32:09.290Z,-1.50
2018-12-18T22:34:37.614Z,-1.50
2018-12-18T22:37:05.975Z,-1.50
2018-12-18T22:39:34.283Z,-1.50
2018-12-18T22:42:02.611Z,-1.50
2018-12-18T22:44:30.979Z,-1.50
2018-12-18T22:46:59.303Z,-1.60
2018-12-18T22:49:27.646Z,-1.50
2018-12-18T22:51:55.966Z,-1.50
2018-12-18T22:54:24.310Z,-1.50
2018-12-18T22:56:52.614Z,-1.60
2018-12-18T22:59:20.962Z,-1.50
2018-12-18T23:01:49.495Z,-1.50
2018-12-18T23:04:17.845Z,-1.50
2018-12-18T23:06:46.185Z,-1.50
2018-12-18T23:09:15.483Z,-1.50
2018-12-18T23:11:43.937Z,-1.50
2018-12-18T23:14:12.263Z,-1.50
2018-12-18T23:16:40.598Z,-1.50
2018-12-18T23:19:08.946Z,-1.50
2018-12-18T23:21:37.254Z,-1.50
2018-12-18T23:24:05.602Z,-1.50
2018-12-18T23:26:33.950Z,-1.40
2018-12-18T23:29:02.306Z,-1.40
2018-12-18T23:31:30.619Z,-1.40
2018-12-18T23:33:58.929Z,-1.40
2018-12-18T23:36:27.307Z,-1.40
2018-12-18T23:38:56.961Z,-1.40
2018-12-18T23:41:25.702Z,-1.50
2018-12-18T23:43:54.085Z,-1.50
2018-12-18T23:46:22.442Z,-1.50
2018-12-18T23:48:50.803Z,-1.50
2018-12-18T23:51:19.118Z,-1.50
2018-12-18T23:53:47.429Z,-1.50
2018-12-18T23:56:15.778Z,-1.60
2018-12-18T23:58:44.085Z,-1.60
